Time;durP1;ratioP1;P1;durP2;ratioP2;P2;SDS_P1;SDS_P2;PMS_P1;PMS_P2;Temp;Humidity;BMP_temperature;BMP_pressure;BME280_temperature;BME280_humidity;BME280_pressure;Samples;Min_cycle;Max_cycle;Signal;HPM_P1;HPM_P2
2020/12/18 00:02:26;;;;;;;17.70;7.53;;;9.10;99.90;;;;;;5094051;28;20204;-75
2020/12/18 00:04:52;;;;;;;18.98;7.40;;;9.00;99.90;;;;;;5095863;28;20338;-75
2020/12/18 00:07:19;;;;;;;16.10;7.40;;;8.80;99.90;;;;;;5059621;28;20226;-75
2020/12/18 00:09:45;;;;;;;19.05;7.80;;;8.80;99.90;;;;;;5075671;28;20213;-75
2020/12/18 00:12:12;;;;;;;24.77;8.10;;;8.70;99.90;;;;;;5081116;28;20195;-76
2020/12/18 00:14:38;;;;;;;16.20;9.02;;;8.70;99.90;;;;;;5075527;28;20430;-75
2020/12/18 00:17:05;;;;;;;19.55;8.43;;;8.90;99.90;;;;;;5076094;28;20203;-76
2020/12/18 00:19:32;;;;;;;16.40;8.05;;;8.90;99.90;;;;;;5078479;28;20214;-76
2020/12/18 00:21:59;;;;;;;18.33;9.60;;;8.80;99.90;;;;;;5072017;28;20416;-75
2020/12/18 00:24:26;;;;;;;19.15;9.18;;;9.00;99.90;;;;;;5073564;28;20442;-75
2020/12/18 00:26:52;;;;;;;18.52;7.97;;;9.30;99.90;;;;;;5074597;28;20226;-75
2020/12/18 00:29:19;;;;;;;24.75;8.60;;;9.10;99.90;;;;;;5081396;28;20220;-75
2020/12/18 00:31:45;;;;;;;15.07;8.10;;;8.90;99.90;;;;;;5077268;28;20550;-76
2020/12/18 00:34:12;;;;;;;19.20;9.60;;;8.80;99.90;;;;;;5079908;28;20431;-76
2020/12/18 00:36:39;;;;;;;16.25;8.27;;;9.00;99.90;;;;;;5082385;28;20460;-75
2020/12/18 00:39:07;;;;;;;14.95;8.70;;;8.90;99.90;;;;;;5075598;28;20217;-75
2020/12/18 00:41:33;;;;;;;14.35;8.40;;;8.80;99.90;;;;;;5074794;28;20251;-75
2020/12/18 00:44:00;;;;;;;23.98;9.20;;;8.70;99.90;;;;;;5074873;28;20662;-75
2020/12/18 00:46:26;;;;;;;13.68;8.30;;;8.70;99.90;;;;;;5069137;28;20225;-75
2020/12/18 00:48:53;;;;;;;22.95;9.10;;;8.60;99.90;;;;;;5077105;28;20218;-75
2020/12/18 00:51:21;;;;;;;20.52;8.52;;;8.60;99.90;;;;;;5077970;28;20201;-75
2020/12/18 00:53:49;;;;;;;22.20;8.38;;;8.60;99.90;;;;;;5076828;28;20222;-76
2020/12/18 00:56:16;;;;;;;21.42;8.57;;;8.50;99.90;;;;;;5078110;28;20182;-75
2020/12/18 00:58:45;;;;;;;25.77;8.93;;;8.50;99.90;;;;;;5077306;28;20255;-76
2020/12/18 01:01:14;;;;;;;20.35;8.55;;;8.40;99.90;;;;;;5076559;28;20450;-75
2020/12/18 01:03:41;;;;;;;20.63;8.73;;;8.40;99.90;;;;;;5076611;28;20210;-76
2020/12/18 01:06:09;;;;;;;19.98;10.82;;;8.40;99.90;;;;;;5075465;28;21173;-76
2020/12/18 01:08:39;;;;;;;21.75;10.95;;;8.60;99.90;;;;;;5079174;28;20456;-75
2020/12/18 01:11:07;;;;;;;21.70;10.13;;;8.90;99.90;;;;;;5094345;28;20409;-77
2020/12/18 01:13:34;;;;;;;19.90;10.60;;;9.10;99.90;;;;;;5084445;28;20741;-76
2020/12/18 01:16:03;;;;;;;18.88;10.23;;;9.10;99.90;;;;;;5075016;28;20494;-76
2020/12/18 01:18:34;;;;;;;22.13;10.32;;;9.20;99.90;;;;;;5077635;28;20416;-76
2020/12/18 01:21:01;;;;;;;23.27;10.63;;;9.30;99.90;;;;;;5090602;28;20500;-76
2020/12/18 01:23:32;;;;;;;19.23;10.02;;;9.30;99.90;;;;;;5079058;28;20918;-77
2020/12/18 01:26:04;;;;;;;18.20;10.47;;;9.30;99.90;;;;;;5075961;28;20474;-77
2020/12/18 01:28:30;;;;;;;19.90;10.57;;;9.40;99.90;;;;;;5077459;28;20421;-77
2020/12/18 01:30:57;;;;;;;19.13;10.20;;;9.40;99.90;;;;;;5080639;28;20454;-76
2020/12/18 01:33:25;;;;;;;19.63;10.35;;;9.40;99.90;;;;;;5077698;28;20449;-76
2020/12/18 01:35:52;;;;;;;21.17;10.13;;;9.50;99.90;;;;;;5082891;28;20469;-76
2020/12/18 01:38:19;;;;;;;21.00;10.20;;;9.40;99.90;;;;;;5079239;28;20811;-77
2020/12/18 01:40:49;;;;;;;21.90;10.70;;;9.40;99.90;;;;;;5077990;28;20784;-77
2020/12/18 01:43:16;;;;;;;21.65;10.73;;;9.50;99.90;;;;;;5076674;28;20430;-76
2020/12/18 01:45:45;;;;;;;21.10;10.65;;;9.50;99.90;;;;;;5092870;28;20489;-76
2020/12/18 01:48:14;;;;;;;20.00;11.43;;;9.50;99.90;;;;;;5095030;28;20416;-75
2020/12/18 01:50:50;;;;;;;22.50;11.63;;;9.40;99.90;;;;;;5075881;28;20431;-75
2020/12/18 01:53:18;;;;;;;24.77;11.20;;;9.40;99.90;;;;;;5074810;28;20937;-76
2020/12/18 01:55:58;;;;;;;22.27;11.40;;;9.40;99.90;;;;;;5078475;28;20469;-77
2020/12/18 01:58:26;;;;;;;20.53;11.23;;;9.50;99.90;;;;;;5076200;28;20424;-76
2020/12/18 02:00:53;;;;;;;22.80;11.18;;;9.40;99.90;;;;;;5078998;28;20416;-77
2020/12/18 02:03:30;;;;;;;23.63;12.00;;;9.40;99.90;;;;;;5095920;27;20855;-77
2020/12/18 02:06:06;;;;;;;23.52;12.43;;;9.50;99.90;;;;;;5075515;28;20449;-76
2020/12/18 02:08:44;;;;;;;22.13;11.67;;;9.50;99.90;;;;;;5074533;28;21008;-76
2020/12/18 02:11:28;;;;;;;25.75;12.23;;;9.40;99.90;;;;;;5077644;28;20412;-75
2020/12/18 02:14:00;;;;;;;22.42;12.13;;;9.50;99.90;;;;;;5080752;28;20427;-75
2020/12/18 02:16:32;;;;;;;27.13;12.93;;;9.40;99.90;;;;;;5081446;28;20420;-75
2020/12/18 02:19:05;;;;;;;21.17;12.25;;;9.40;99.90;;;;;;5082555;28;20421;-76
2020/12/18 02:21:35;;;;;;;24.48;12.75;;;9.40;99.90;;;;;;5076294;28;20425;-75
2020/12/18 02:24:02;;;;;;;26.95;13.13;;;9.30;99.90;;;;;;5079456;28;20421;-75
2020/12/18 02:26:33;;;;;;;25.58;13.43;;;9.30;99.90;;;;;;5081020;28;20416;-75
2020/12/18 02:28:59;;;;;;;28.25;13.20;;;9.30;99.90;;;;;;5103030;27;20424;-75
2020/12/18 02:31:33;;;;;;;26.83;13.40;;;9.30;99.90;;;;;;5078929;28;20414;-74
2020/12/18 02:34:23;;;;;;;29.45;14.50;;;9.30;99.90;;;;;;5098911;28;20828;-73
2020/12/18 02:36:50;;;;;;;27.52;13.57;;;9.30;99.90;;;;;;5077543;28;20822;-75
2020/12/18 02:39:17;;;;;;;26.73;13.57;;;9.20;99.90;;;;;;5088706;28;20425;-75
2020/12/18 02:41:47;;;;;;;33.30;14.93;;;9.20;99.90;;;;;;5079195;28;20453;-74
2020/12/18 02:44:24;;;;;;;33.10;14.73;;;9.30;99.90;;;;;;5078917;28;20412;-75
2020/12/18 02:47:13;;;;;;;28.38;14.43;;;9.20;99.90;;;;;;5078134;28;20454;-75
2020/12/18 02:49:39;;;;;;;28.67;14.53;;;9.20;99.90;;;;;;5077231;28;20426;-75
2020/12/18 02:52:06;;;;;;;26.20;14.27;;;9.20;99.90;;;;;;5097551;28;20422;-75
2020/12/18 02:55:05;;;;;;;27.80;15.00;;;9.20;99.90;;;;;;5099339;28;20870;-76
2020/12/18 02:57:51;;;;;;;30.20;14.80;;;9.20;99.90;;;;;;5097435;28;20462;-75
2020/12/18 03:00:35;;;;;;;32.13;15.10;;;9.20;99.90;;;;;;5104270;28;21597;-75
2020/12/18 03:03:03;;;;;;;29.98;14.40;;;9.20;99.90;;;;;;5081019;28;20503;-75
2020/12/18 03:05:31;;;;;;;30.63;15.60;;;9.20;99.90;;;;;;5100555;28;20763;-76
2020/12/18 03:08:06;;;;;;;30.90;15.20;;;9.20;99.90;;;;;;5091689;28;20439;-75
2020/12/18 03:10:34;;;;;;;28.25;15.27;;;9.20;99.90;;;;;;5075840;28;20414;-75
2020/12/18 03:13:01;;;;;;;30.20;15.88;;;9.10;99.90;;;;;;5098438;28;20424;-75
2020/12/18 03:15:28;;;;;;;28.02;15.52;;;9.10;99.90;;;;;;5093180;28;20405;-75
2020/12/18 03:18:13;;;;;;;34.38;16.25;;;9.10;99.90;;;;;;5081343;28;20503;-76
2020/12/18 03:20:40;;;;;;;35.60;16.33;;;9.10;99.90;;;;;;5078224;28;20460;-75
2020/12/18 03:23:35;;;;;;;37.55;16.50;;;9.10;99.90;;;;;;5085831;28;20885;-75
2020/12/18 03:26:24;;;;;;;33.58;16.30;;;9.10;99.90;;;;;;5094245;28;20496;-75
2020/12/18 03:28:57;;;;;;;32.65;16.52;;;9.10;99.90;;;;;;5084498;28;20448;-75
2020/12/18 03:31:24;;;;;;;34.73;15.90;;;9.10;99.90;;;;;;5076072;28;20422;-75
2020/12/18 03:33:51;;;;;;;33.20;16.35;;;9.20;99.90;;;;;;5079296;28;20453;-75
2020/12/18 03:36:36;;;;;;;31.52;15.70;;;9.20;99.90;;;;;;5077900;28;20423;-74
2020/12/18 03:39:05;;;;;;;32.10;16.10;;;9.20;99.90;;;;;;5081401;28;20487;-75
2020/12/18 03:41:33;;;;;;;31.93;16.83;;;9.20;99.90;;;;;;5082500;28;20838;-75
2020/12/18 03:44:01;;;;;;;33.55;16.13;;;9.20;99.90;;;;;;5079964;28;20475;-76
2020/12/18 03:46:27;;;;;;;33.90;16.42;;;9.20;99.90;;;;;;5095370;28;20497;-76
2020/12/18 03:49:12;;;;;;;35.92;16.50;;;9.30;99.90;;;;;;5079767;28;20418;-75
2020/12/18 03:51:45;;;;;;;29.67;16.20;;;9.30;99.90;;;;;;5074058;28;20417;-75
2020/12/18 03:54:17;;;;;;;30.98;16.00;;;9.30;99.90;;;;;;5083716;28;20910;-76
2020/12/18 03:57:06;;;;;;;33.03;16.13;;;9.30;99.90;;;;;;5089595;28;20431;-75
2020/12/18 03:59:50;;;;;;;32.65;15.95;;;9.30;99.90;;;;;;5084076;28;20424;-76
2020/12/18 04:02:28;;;;;;;31.07;15.87;;;9.30;99.90;;;;;;5094665;28;21152;-75
2020/12/18 04:04:55;;;;;;;29.02;14.90;;;9.30;99.90;;;;;;5078660;28;20435;-76
2020/12/18 04:07:21;;;;;;;29.75;15.32;;;9.30;99.90;;;;;;5074011;28;20786;-74
2020/12/18 04:09:48;;;;;;;34.35;15.88;;;9.30;99.90;;;;;;5078362;28;20431;-73
2020/12/18 04:12:20;;;;;;;34.42;15.77;;;9.40;99.90;;;;;;5081491;28;20425;-75
2020/12/18 04:14:54;;;;;;;34.13;15.82;;;9.40;99.90;;;;;;5074752;28;20430;-74
2020/12/18 04:17:27;;;;;;;33.33;15.82;;;9.40;99.90;;;;;;5080341;28;20418;-74
2020/12/18 04:20:03;;;;;;;31.52;15.57;;;9.40;99.90;;;;;;5077698;28;20762;-77
2020/12/18 04:22:31;;;;;;;30.17;15.00;;;9.40;99.90;;;;;;5075218;28;20459;-76
2020/12/18 04:25:07;;;;;;;31.45;15.57;;;9.50;99.90;;;;;;5092614;28;20439;-74
2020/12/18 04:27:40;;;;;;;28.23;14.93;;;9.50;99.90;;;;;;5081313;28;20432;-74
2020/12/18 04:30:09;;;;;;;31.70;15.10;;;9.50;99.90;;;;;;5075963;28;20541;-73
2020/12/18 04:32:38;;;;;;;31.30;15.27;;;9.50;99.90;;;;;;5078867;28;20566;-75
2020/12/18 04:35:09;;;;;;;31.02;14.65;;;9.50;99.90;;;;;;5082707;28;20780;-75
2020/12/18 04:37:53;;;;;;;31.92;14.52;;;9.50;99.90;;;;;;5098279;28;20958;-74
2020/12/18 04:40:33;;;;;;;29.55;15.02;;;9.50;99.90;;;;;;5095140;28;20452;-75
2020/12/18 04:43:21;;;;;;;31.45;15.05;;;9.50;99.90;;;;;;5075310;28;20439;-75
2020/12/18 04:45:57;;;;;;;31.23;15.13;;;9.50;99.90;;;;;;5091020;28;20499;-74
2020/12/18 04:48:28;;;;;;;31.27;14.70;;;9.50;99.90;;;;;;5073222;28;20418;-75
2020/12/18 04:50:56;;;;;;;29.55;14.80;;;9.50;99.90;;;;;;5074688;28;20501;-75
2020/12/18 04:53:29;;;;;;;28.63;14.90;;;9.50;99.90;;;;;;5072530;28;20504;-75
2020/12/18 04:56:10;;;;;;;30.95;14.80;;;9.40;99.90;;;;;;5076627;28;20418;-75
2020/12/18 04:58:45;;;;;;;31.60;14.90;;;9.40;99.90;;;;;;5080343;28;20428;-75
2020/12/18 05:01:18;;;;;;;27.77;15.15;;;9.40;99.90;;;;;;5076066;28;20409;-75
2020/12/18 05:03:52;;;;;;;31.38;14.70;;;9.40;99.90;;;;;;5079511;28;20484;-74
2020/12/18 05:06:20;;;;;;;30.52;15.05;;;9.40;99.90;;;;;;5086975;28;20425;-74
2020/12/18 05:08:46;;;;;;;27.98;14.57;;;9.50;99.90;;;;;;5078875;28;20418;-75
2020/12/18 05:11:21;;;;;;;33.97;14.80;;;9.40;99.90;;;;;;5074056;28;20508;-74
2020/12/18 05:13:55;;;;;;;29.35;14.27;;;9.40;99.90;;;;;;5077919;28;20433;-75
2020/12/18 05:16:24;;;;;;;30.02;15.02;;;9.40;99.90;;;;;;5077023;28;20594;-74
2020/12/18 05:19:09;;;;;;;29.48;14.48;;;9.40;99.90;;;;;;5098980;28;20433;-75
2020/12/18 05:22:09;;;;;;;31.83;15.05;;;9.40;99.90;;;;;;5055347;28;20835;-75
2020/12/18 05:24:53;;;;;;;27.77;14.80;;;9.40;99.90;;;;;;5082538;28;20831;-74
2020/12/18 05:27:23;;;;;;;31.85;15.30;;;9.40;99.90;;;;;;5075580;28;20563;-75
2020/12/18 05:29:51;;;;;;;29.05;15.18;;;9.40;99.90;;;;;;5083391;28;20473;-74
2020/12/18 05:32:38;;;;;;;32.77;15.50;;;9.40;99.90;;;;;;5096083;28;20466;-75
2020/12/18 05:35:12;;;;;;;31.38;15.48;;;9.30;99.90;;;;;;5082774;28;20798;-74
2020/12/18 05:37:51;;;;;;;32.03;15.60;;;9.40;99.90;;;;;;5079679;28;20436;-74
2020/12/18 05:40:25;;;;;;;33.73;15.17;;;9.40;99.90;;;;;;5080431;28;20937;-77
2020/12/18 05:43:18;;;;;;;29.60;14.77;;;9.40;99.90;;;;;;5071171;28;20420;-75
2020/12/18 05:45:51;;;;;;;33.65;16.20;;;9.40;99.90;;;;;;5078502;28;20422;-76
2020/12/18 05:49:02;;;;;;;30.73;15.88;;;9.40;99.90;;;;;;5104187;28;20427;-78
2020/12/18 05:51:33;;;;;;;33.58;15.48;;;9.40;99.90;;;;;;5078693;28;20416;-75
2020/12/18 05:54:11;;;;;;;32.83;15.57;;;9.40;99.90;;;;;;5085100;28;20413;-77
2020/12/18 05:56:45;;;;;;;33.17;15.32;;;9.40;99.90;;;;;;5091774;28;20897;-75
2020/12/18 05:59:13;;;;;;;32.83;15.15;;;9.40;99.90;;;;;;5101143;28;20425;-74
2020/12/18 06:01:53;;;;;;;30.13;14.57;;;9.40;99.90;;;;;;5074720;28;20429;-75
2020/12/18 06:04:39;;;;;;;34.55;15.25;;;9.40;99.90;;;;;;5098979;28;20464;-75
2020/12/18 06:07:18;;;;;;;36.25;15.27;;;9.40;99.90;;;;;;5078357;28;20425;-76
2020/12/18 06:10:04;;;;;;;29.52;14.65;;;9.30;99.90;;;;;;5078171;28;20425;-76
2020/12/18 06:13:00;;;;;;;31.58;14.50;;;9.40;99.90;;;;;;5094925;28;20447;-76
2020/12/18 06:15:48;;;;;;;38.17;14.80;;;9.40;99.90;;;;;;5078968;28;20429;-75
2020/12/18 06:18:19;;;;;;;31.30;14.50;;;9.40;99.90;;;;;;5077116;28;20511;-75
2020/12/18 06:20:46;;;;;;;30.10;14.85;;;9.30;99.90;;;;;;5080877;28;20414;-76
2020/12/18 06:23:15;;;;;;;30.25;14.20;;;9.30;99.90;;;;;;5080727;28;20418;-75
2020/12/18 06:26:04;;;;;;;33.83;14.90;;;9.30;99.90;;;;;;5088901;28;20499;-75
2020/12/18 06:28:50;;;;;;;31.40;14.90;;;9.20;99.90;;;;;;5102289;28;20436;-75
2020/12/18 06:31:24;;;;;;;33.13;14.75;;;9.20;99.90;;;;;;5097677;28;20442;-76
2020/12/18 06:34:23;;;;;;;30.27;14.80;;;9.20;99.90;;;;;;5084872;28;20465;-77
2020/12/18 06:37:10;;;;;;;30.30;14.48;;;9.30;99.90;;;;;;5096003;28;20443;-76
2020/12/18 06:40:05;;;;;;;32.07;14.33;;;9.30;99.90;;;;;;5078487;28;20563;-76
2020/12/18 06:42:50;;;;;;;29.58;14.02;;;9.30;99.90;;;;;;5102274;28;20465;-76
2020/12/18 06:45:42;;;;;;;28.00;13.88;;;9.30;99.90;;;;;;5100057;28;21070;-76
2020/12/18 06:48:29;;;;;;;25.57;13.83;;;9.30;99.90;;;;;;5093228;28;20960;-74
2020/12/18 06:51:29;;;;;;;28.45;13.65;;;9.30;99.90;;;;;;5092589;28;20963;-75
2020/12/18 06:54:21;;;;;;;29.65;14.43;;;9.40;99.90;;;;;;5077764;28;20506;-75
2020/12/18 06:57:19;;;;;;;29.73;15.95;;;9.40;99.90;;;;;;5076289;28;20421;-76
2020/12/18 06:59:48;;;;;;;28.05;14.18;;;9.40;99.90;;;;;;5104911;28;20459;-76
2020/12/18 07:02:35;;;;;;;27.13;14.40;;;9.50;99.90;;;;;;5101189;28;20429;-76
2020/12/18 07:05:03;;;;;;;28.33;15.38;;;9.50;99.90;;;;;;5076561;28;20418;-76
2020/12/18 07:07:31;;;;;;;29.45;15.13;;;9.50;99.90;;;;;;5097804;28;20477;-75
2020/12/18 07:09:58;;;;;;;29.63;16.33;;;9.50;99.90;;;;;;5097729;28;20478;-73
2020/12/18 07:12:25;;;;;;;29.03;16.07;;;9.60;99.90;;;;;;5105741;28;20808;-77
2020/12/18 07:14:54;;;;;;;33.38;18.23;;;9.60;99.90;;;;;;5083355;28;20435;-77
2020/12/18 07:17:22;;;;;;;34.85;19.83;;;9.60;99.90;;;;;;5102166;28;20410;-76
2020/12/18 07:19:48;;;;;;;35.53;19.67;;;9.60;99.90;;;;;;5097064;28;20418;-77
2020/12/18 07:22:21;;;;;;;32.10;18.92;;;9.60;99.90;;;;;;5082285;28;20448;-78
2020/12/18 07:24:48;;;;;;;32.10;19.80;;;9.60;99.90;;;;;;5092228;28;20414;-76
2020/12/18 07:27:15;;;;;;;32.17;20.15;;;9.70;99.90;;;;;;5073030;28;20922;-78
2020/12/18 07:29:42;;;;;;;35.60;21.10;;;9.60;99.90;;;;;;5101846;28;20835;-75
2020/12/18 07:32:09;;;;;;;36.60;22.05;;;9.70;99.90;;;;;;5076985;28;20418;-75
2020/12/18 07:34:35;;;;;;;37.17;22.52;;;9.70;99.90;;;;;;5084425;28;20466;-74
2020/12/18 07:37:11;;;;;;;34.40;22.13;;;9.70;99.90;;;;;;5083026;28;20456;-74
2020/12/18 07:39:38;;;;;;;32.97;22.40;;;9.70;99.90;;;;;;5079759;28;20436;-74
2020/12/18 07:42:04;;;;;;;38.90;23.33;;;9.70;99.90;;;;;;5078748;28;20427;-75
2020/12/18 07:44:32;;;;;;;40.17;24.38;;;9.70;99.90;;;;;;5095618;28;20429;-73
2020/12/18 07:46:59;;;;;;;40.60;25.17;;;9.80;99.90;;;;;;5101227;28;20428;-73
2020/12/18 07:49:27;;;;;;;40.78;26.73;;;9.80;99.90;;;;;;5101066;28;20792;-73
2020/12/18 07:51:55;;;;;;;42.67;28.65;;;9.80;99.90;;;;;;5082012;28;20425;-76
2020/12/18 07:54:22;;;;;;;47.28;28.85;;;9.80;99.90;;;;;;5102561;28;20428;-76
2020/12/18 07:56:48;;;;;;;49.42;29.80;;;9.90;99.90;;;;;;5098276;28;20735;-75
2020/12/18 07:59:17;;;;;;;52.08;32.75;;;9.90;99.90;;;;;;5097909;28;20422;-76
2020/12/18 08:01:47;;;;;;;48.15;30.42;;;9.90;99.90;;;;;;5096545;28;20418;-77
2020/12/18 08:04:14;;;;;;;53.78;30.73;;;9.90;99.90;;;;;;5073345;28;20497;-76
2020/12/18 08:06:42;;;;;;;47.85;29.67;;;9.90;99.90;;;;;;5097400;28;20958;-74
2020/12/18 08:09:10;;;;;;;48.00;29.70;;;9.90;99.90;;;;;;5106579;28;20431;-75
2020/12/18 08:11:42;;;;;;;47.03;29.75;;;10.00;99.90;;;;;;5092177;28;20942;-75
2020/12/18 08:14:09;;;;;;;45.50;29.63;;;10.00;99.90;;;;;;5103837;28;20423;-75
2020/12/18 08:16:36;;;;;;;47.33;29.65;;;9.90;99.90;;;;;;5077405;28;20418;-74
2020/12/18 08:19:05;;;;;;;45.78;29.33;;;10.00;99.90;;;;;;5092890;28;20508;-76
2020/12/18 08:21:33;;;;;;;45.13;29.17;;;9.90;99.90;;;;;;5078820;28;20422;-75
2020/12/18 08:24:02;;;;;;;49.63;29.00;;;10.00;99.90;;;;;;5076438;28;20918;-75
2020/12/18 08:26:33;;;;;;;44.72;29.25;;;10.00;99.90;;;;;;5082444;28;20425;-77
2020/12/18 08:28:59;;;;;;;50.28;29.17;;;10.00;99.90;;;;;;5081001;28;20424;-76
2020/12/18 08:31:26;;;;;;;46.85;29.65;;;10.00;99.90;;;;;;5104969;28;20912;-75
2020/12/18 08:33:54;;;;;;;43.08;28.08;;;10.00;99.90;;;;;;5100636;28;20420;-75
2020/12/18 08:36:23;;;;;;;43.15;27.63;;;10.10;99.90;;;;;;5086657;28;20417;-78
2020/12/18 08:39:01;;;;;;;44.00;27.67;;;10.10;99.90;;;;;;5100095;28;20413;-74
2020/12/18 08:41:39;;;;;;;45.85;27.92;;;10.10;99.90;;;;;;5101221;28;20408;-76
2020/12/18 08:44:06;;;;;;;43.45;26.42;;;10.10;99.90;;;;;;5102224;28;20422;-78
2020/12/18 08:50:28;;;;;;;39.08;24.20;;;10.10;99.90;;;;;;5092396;28;20410;-78
2020/12/18 08:53:07;;;;;;;39.67;24.53;;;10.20;99.90;;;;;;5090596;28;20430;-78
2020/12/18 08:55:35;;;;;;;38.00;23.52;;;10.10;99.90;;;;;;5074781;28;20429;-77
2020/12/18 08:58:06;;;;;;;35.92;22.38;;;10.20;99.90;;;;;;5084941;28;20418;-78
2020/12/18 09:00:32;;;;;;;38.05;22.27;;;10.20;99.90;;;;;;5080245;28;20418;-78
2020/12/18 09:02:59;;;;;;;33.50;21.40;;;10.20;99.90;;;;;;5104218;28;20514;-79
2020/12/18 09:05:27;;;;;;;33.63;21.38;;;10.20;99.90;;;;;;5092627;28;20441;-77
2020/12/18 09:07:59;;;;;;;34.03;20.52;;;10.20;99.90;;;;;;5090729;28;20420;-78
2020/12/18 09:10:40;;;;;;;35.28;20.45;;;10.20;99.90;;;;;;5072655;28;20416;-77
2020/12/18 09:13:19;;;;;;;32.45;19.20;;;10.20;99.90;;;;;;5093350;28;20487;-78
2020/12/18 09:15:48;;;;;;;32.50;18.23;;;10.20;99.90;;;;;;5109636;28;20427;-78
2020/12/18 09:18:16;;;;;;;27.90;17.23;;;10.30;99.90;;;;;;5100581;28;20420;-79
2020/12/18 09:20:43;;;;;;;29.53;16.80;;;10.30;99.90;;;;;;5091844;28;21019;-79
2020/12/18 09:23:12;;;;;;;24.50;15.52;;;10.30;99.90;;;;;;5108205;28;20420;-78
2020/12/18 09:25:41;;;;;;;26.40;15.80;;;10.30;99.90;;;;;;5110061;28;20924;-79
2020/12/18 09:28:12;;;;;;;28.80;15.50;;;10.30;99.90;;;;;;5082637;28;20430;-79
2020/12/18 09:30:39;;;;;;;24.20;14.77;;;10.30;99.90;;;;;;5101199;28;20408;-79
2020/12/18 09:33:10;;;;;;;24.38;14.10;;;10.30;99.90;;;;;;5088908;28;20492;-80
2020/12/18 09:35:36;;;;;;;25.20;13.90;;;10.40;99.90;;;;;;5071992;28;20505;-79
2020/12/18 09:38:03;;;;;;;21.05;13.55;;;10.40;99.90;;;;;;5102071;28;20423;-77
2020/12/18 09:40:30;;;;;;;21.77;13.40;;;10.40;99.90;;;;;;5095300;28;20414;-76
2020/12/18 09:42:57;;;;;;;24.50;12.95;;;10.40;99.90;;;;;;5092727;28;20428;-76
2020/12/18 09:45:23;;;;;;;22.35;13.10;;;10.50;99.90;;;;;;5089872;28;20402;-78
2020/12/18 09:47:50;;;;;;;21.75;12.35;;;10.50;99.90;;;;;;5108066;28;20421;-78
2020/12/18 09:50:16;;;;;;;22.13;12.13;;;10.50;99.90;;;;;;5083295;28;20418;-76
2020/12/18 09:52:43;;;;;;;23.55;11.80;;;10.60;99.90;;;;;;5099759;28;20464;-76
2020/12/18 09:55:09;;;;;;;21.53;11.97;;;10.60;99.90;;;;;;5071549;28;20816;-76
2020/12/18 09:57:36;;;;;;;22.05;11.32;;;10.70;99.90;;;;;;5103353;28;20776;-77
2020/12/18 10:00:05;;;;;;;21.35;11.13;;;10.70;99.90;;;;;;5099106;28;20466;-76
2020/12/18 10:02:38;;;;;;;19.38;10.30;;;10.70;99.90;;;;;;5101504;28;20936;-76
2020/12/18 10:05:05;;;;;;;23.38;10.30;;;10.80;99.90;;;;;;5074001;28;20417;-76
2020/12/18 10:07:32;;;;;;;21.37;10.83;;;10.80;99.90;;;;;;5074804;28;21077;-77
2020/12/18 10:09:58;;;;;;;17.38;9.75;;;10.90;99.90;;;;;;5095224;28;20480;-77
2020/12/18 10:12:25;;;;;;;18.17;10.15;;;10.90;99.90;;;;;;5091381;28;21013;-77
2020/12/18 10:14:52;;;;;;;19.50;9.60;;;10.90;99.90;;;;;;5074794;28;20526;-77
2020/12/18 10:17:19;;;;;;;16.92;9.38;;;10.90;99.90;;;;;;5094693;28;20190;-77
2020/12/18 10:19:45;;;;;;;17.85;8.85;;;10.70;99.90;;;;;;5104095;28;20246;-78
2020/12/18 10:22:12;;;;;;;19.95;9.02;;;10.50;99.90;;;;;;5101293;28;20194;-77
2020/12/18 10:24:38;;;;;;;20.80;9.88;;;10.40;99.90;;;;;;5091327;28;20424;-80
2020/12/18 10:27:32;;;;;;;18.38;9.07;;;10.60;99.90;;;;;;5105213;28;20437;-78
2020/12/18 10:30:05;;;;;;;20.63;9.57;;;10.80;99.90;;;;;;5099306;28;20556;-78
2020/12/18 10:32:31;;;;;;;18.65;9.30;;;10.90;99.90;;;;;;5083159;28;20457;-77
2020/12/18 10:35:03;;;;;;;17.15;8.88;;;11.00;99.90;;;;;;5088983;28;20536;-77
2020/12/18 10:37:37;;;;;;;18.80;8.70;;;11.10;99.90;;;;;;5100644;28;20516;-78
2020/12/18 10:40:04;;;;;;;15.23;8.45;;;11.10;99.90;;;;;;5080864;28;20532;-78
2020/12/18 10:42:44;;;;;;;16.02;8.10;;;11.20;99.90;;;;;;5082284;28;20427;-78
2020/12/18 10:45:30;;;;;;;19.10;8.73;;;11.20;99.90;;;;;;5099589;28;20422;-76
2020/12/18 10:48:12;;;;;;;19.73;8.15;;;11.30;99.90;;;;;;5088707;28;20429;-78
2020/12/18 10:50:49;;;;;;;16.55;7.35;;;11.30;99.90;;;;;;5102616;28;20406;-78
2020/12/18 10:53:18;;;;;;;17.17;7.82;;;11.30;99.90;;;;;;5099775;28;20774;-78
2020/12/18 10:55:45;;;;;;;16.70;7.10;;;11.30;99.90;;;;;;5098222;28;20479;-75
2020/12/18 10:58:11;;;;;;;20.13;7.43;;;11.40;99.90;;;;;;5099607;28;20467;-79
2020/12/18 11:00:39;;;;;;;17.13;6.95;;;11.40;99.90;;;;;;5080525;28;20419;-76
2020/12/18 11:03:06;;;;;;;16.52;6.70;;;11.40;99.90;;;;;;5108053;28;20513;-77
2020/12/18 11:05:32;;;;;;;17.03;7.07;;;11.40;99.90;;;;;;5101990;28;20431;-80
2020/12/18 11:07:59;;;;;;;14.80;6.60;;;11.50;99.90;;;;;;5104406;28;20416;-78
2020/12/18 11:10:25;;;;;;;16.02;6.85;;;11.50;99.90;;;;;;5092975;28;20786;-75
2020/12/18 11:12:51;;;;;;;15.85;6.80;;;11.60;99.90;;;;;;5086682;28;20424;-77
2020/12/18 11:15:18;;;;;;;12.43;6.10;;;11.60;99.90;;;;;;5110850;28;20400;-76
2020/12/18 11:17:45;;;;;;;14.35;5.70;;;11.60;99.90;;;;;;5092725;28;20484;-76
2020/12/18 11:20:11;;;;;;;17.63;6.18;;;11.60;99.90;;;;;;5080024;28;20428;-75
2020/12/18 11:22:38;;;;;;;16.70;6.03;;;11.60;99.90;;;;;;5107608;28;20422;-74
2020/12/18 11:25:04;;;;;;;15.10;6.30;;;11.60;99.90;;;;;;5106111;28;20424;-78
2020/12/18 11:27:31;;;;;;;13.93;6.20;;;11.70;99.90;;;;;;5105243;28;20514;-79
2020/12/18 11:29:57;;;;;;;15.63;6.15;;;11.60;99.90;;;;;;5106533;28;20439;-77
2020/12/18 11:32:24;;;;;;;15.70;6.35;;;11.70;99.90;;;;;;5099734;28;20416;-78
2020/12/18 11:34:51;;;;;;;12.65;5.82;;;11.60;99.90;;;;;;5100760;28;20470;-76
2020/12/18 11:37:21;;;;;;;14.15;5.78;;;11.70;99.90;;;;;;5080794;28;20422;-76
2020/12/18 11:39:48;;;;;;;15.40;5.50;;;11.70;99.90;;;;;;5104827;28;20422;-81
2020/12/18 11:42:14;;;;;;;20.63;6.35;;;11.70;99.90;;;;;;5097476;28;20412;-77
2020/12/18 11:44:41;;;;;;;12.45;5.63;;;11.70;99.90;;;;;;5102889;28;20424;-77
2020/12/18 11:47:07;;;;;;;16.30;5.43;;;11.70;99.90;;;;;;5082378;28;20491;-79
2020/12/18 11:49:33;;;;;;;13.10;5.97;;;11.70;99.90;;;;;;5104963;28;20422;-78
2020/12/18 11:52:03;;;;;;;18.75;5.30;;;11.80;99.90;;;;;;5099094;28;20901;-78
2020/12/18 11:54:30;;;;;;;16.20;5.30;;;11.80;99.90;;;;;;5104772;28;20404;-78
2020/12/18 11:56:56;;;;;;;14.93;4.90;;;11.80;99.90;;;;;;5099120;28;20412;-77
2020/12/18 11:59:22;;;;;;;13.48;4.80;;;11.90;99.90;;;;;;5102686;28;20564;-82
2020/12/18 12:01:49;;;;;;;15.95;5.00;;;11.90;99.90;;;;;;5097492;28;20465;-79
2020/12/18 12:04:15;;;;;;;15.52;4.80;;;11.90;99.90;;;;;;5087182;28;20411;-80
2020/12/18 12:06:42;;;;;;;10.90;4.78;;;11.90;99.70;;;;;;5098884;28;20981;-80
2020/12/18 12:09:10;;;;;;;11.27;4.33;;;12.00;99.60;;;;;;5087673;28;20436;-81
2020/12/18 12:11:37;;;;;;;14.57;4.38;;;12.10;99.40;;;;;;5100200;28;20440;-79
2020/12/18 12:14:03;;;;;;;10.55;4.30;;;12.10;99.30;;;;;;5104190;28;20508;-80
2020/12/18 12:16:32;;;;;;;11.90;3.92;;;12.10;99.20;;;;;;5086314;28;20202;-78
2020/12/18 12:18:59;;;;;;;15.10;4.50;;;11.80;99.60;;;;;;5093544;28;20410;-80
2020/12/18 12:21:32;;;;;;;13.27;4.40;;;11.90;99.70;;;;;;5098603;28;20764;-77
2020/12/18 12:23:58;;;;;;;11.48;4.20;;;12.10;99.50;;;;;;5101337;28;20429;-76
2020/12/18 12:26:26;;;;;;;16.15;4.07;;;12.20;99.10;;;;;;5080957;28;20798;-76
2020/12/18 12:28:53;;;;;;;10.95;3.60;;;12.30;98.70;;;;;;5080977;28;20425;-77
2020/12/18 12:31:20;;;;;;;11.48;3.28;;;12.40;98.40;;;;;;5105518;28;20837;-75
2020/12/18 12:33:46;;;;;;;9.13;3.22;;;12.50;98.10;;;;;;5094906;28;20213;-77
2020/12/18 12:36:17;;;;;;;14.15;3.80;;;12.20;98.60;;;;;;5098789;28;20189;-75
2020/12/18 12:38:44;;;;;;;13.10;4.22;;;12.00;99.10;;;;;;5085955;28;20866;-77
2020/12/18 12:41:10;;;;;;;11.68;3.60;;;12.30;98.90;;;;;;5071998;28;20421;-75
2020/12/18 12:43:37;;;;;;;13.60;3.90;;;12.50;98.30;;;;;;5072323;28;20814;-74
2020/12/18 12:46:04;;;;;;;10.85;3.40;;;12.60;97.80;;;;;;5071580;28;20421;-75
2020/12/18 12:48:30;;;;;;;9.83;3.10;;;12.70;97.40;;;;;;5072429;28;20471;-75
2020/12/18 12:50:56;;;;;;;10.03;3.20;;;12.80;97.20;;;;;;5108639;28;20412;-75
2020/12/18 12:53:23;;;;;;;10.65;3.00;;;12.80;96.80;;;;;;5103232;28;20416;-76
2020/12/18 12:55:50;;;;;;;9.52;3.00;;;12.90;96.50;;;;;;5094626;28;20425;-75
2020/12/18 12:58:17;;;;;;;8.93;2.97;;;13.00;96.20;;;;;;5072944;28;20968;-75
2020/12/18 13:00:44;;;;;;;10.10;2.78;;;13.10;96.00;;;;;;5083401;28;20489;-75
2020/12/18 13:03:11;;;;;;;12.02;3.13;;;13.20;95.90;;;;;;5098868;28;20474;-75